createdAt,value
2016-10-14T00:00:30.758Z,99.99
2016-10-14T00:01:30.750Z,99.99
2016-10-14T00:02:30.752Z,99.99
2016-10-14T00:03:30.759Z,99.99
2016-10-14T00:04:30.757Z,99.99
2016-10-14T00:05:30.683Z,99.99
2016-10-14T00:06:30.691Z,99.99
2016-10-14T00:07:30.761Z,99.99
2016-10-14T00:08:30.974Z,99.99
2016-10-14T00:09:30.732Z,99.99
2016-10-14T00:10:30.776Z,99.99
2016-10-14T00:11:30.707Z,99.99
2016-10-14T00:12:30.777Z,99.99
2016-10-14T00:13:30.789Z,99.99
2016-10-14T00:14:30.709Z,99.99
2016-10-14T00:15:30.786Z,99.99
2016-10-14T00:16:30.795Z,99.99
2016-10-14T00:17:30.759Z,99.99
2016-10-14T00:18:30.751Z,99.99
2016-10-14T00:19:30.751Z,99.99
2016-10-14T00:20:30.812Z,99.99
2016-10-14T00:21:30.810Z,99.99
2016-10-14T00:22:30.766Z,99.99
2016-10-14T00:23:30.805Z,99.99
2016-10-14T00:24:30.848Z,99.99
2016-10-14T00:25:30.739Z,99.99
2016-10-14T00:26:30.820Z,99.99
2016-10-14T00:27:30.775Z,99.99
2016-10-14T00:28:30.824Z,99.99
2016-10-14T00:29:30.755Z,99.99
2016-10-14T00:30:30.834Z,99.99
2016-10-14T00:31:30.829Z,99.99
2016-10-14T00:32:30.838Z,99.99
2016-10-14T00:33:30.758Z,99.99
2016-10-14T00:34:30.832Z,99.99
2016-10-14T00:35:30.841Z,99.99
2016-10-14T00:36:30.842Z,99.99
2016-10-14T00:37:30.862Z,99.99
2016-10-14T00:38:30.774Z,99.99
2016-10-14T00:39:30.851Z,99.99
2016-10-14T00:40:30.983Z,99.99
2016-10-14T00:41:30.796Z,99.99
2016-10-14T00:42:30.862Z,99.99
2016-10-14T00:43:30.865Z,99.99
2016-10-14T00:44:30.867Z,99.99
2016-10-14T00:45:30.869Z,99.99
2016-10-14T00:46:30.875Z,99.99
2016-10-14T00:47:30.875Z,99.99
2016-10-14T00:48:30.879Z,99.99
2016-10-14T00:49:30.877Z,99.99
2016-10-14T00:50:30.835Z,99.99
2016-10-14T00:51:30.896Z,99.99
2016-10-14T00:52:30.852Z,99.99
2016-10-14T00:53:30.886Z,99.99
2016-10-14T00:54:30.820Z,99.99
2016-10-14T00:55:30.849Z,99.99
2016-10-14T00:56:31.010Z,99.99
2016-10-14T00:57:30.909Z,99.99
2016-10-14T00:58:30.902Z,99.99
2016-10-14T00:59:30.870Z,99.99
2016-10-14T01:00:30.915Z,99.99
2016-10-14T01:01:30.884Z,99.99
2016-10-14T01:02:30.917Z,99.99
2016-10-14T01:03:30.924Z,99.99
2016-10-14T01:04:30.854Z,99.99
2016-10-14T01:05:30.986Z,99.99
2016-10-14T01:06:30.925Z,99.99
2016-10-14T01:07:30.934Z,99.99
2016-10-14T01:08:30.862Z,99.99
2016-10-14T01:09:30.905Z,99.99
2016-10-14T01:10:30.931Z,99.99
2016-10-14T01:11:30.940Z,99.99
2016-10-14T01:12:31.053Z,99.99
2016-10-14T01:13:30.953Z,99.99
2016-10-14T01:14:30.915Z,99.99
2016-10-14T01:15:30.910Z,99.99
2016-10-14T01:16:30.914Z,99.99
2016-10-14T01:17:30.957Z,99.99
2016-10-14T01:18:30.966Z,99.99
2016-10-14T01:19:30.960Z,99.99
2016-10-14T01:20:30.964Z,99.99
2016-10-14T01:21:30.897Z,99.99
2016-10-14T01:22:30.892Z,99.99
2016-10-14T01:23:30.979Z,99.99
2016-10-14T01:24:30.980Z,99.99
2016-10-14T01:25:30.981Z,99.99
2016-10-14T01:26:30.940Z,99.99
2016-10-14T01:27:30.950Z,99.99
2016-10-14T01:28:31.094Z,99.99
2016-10-14T01:29:30.951Z,99.99
2016-10-14T01:30:30.994Z,99.99
2016-10-14T01:31:30.951Z,99.99
2016-10-14T01:32:30.924Z,99.99
2016-10-14T01:33:31.003Z,99.99
2016-10-14T01:34:31.032Z,99.99
2016-10-14T01:35:30.939Z,99.99
2016-10-14T01:36:30.936Z,99.99
2016-10-14T01:37:30.977Z,99.99
2016-10-14T01:38:31.023Z,99.99
2016-10-14T01:39:31.019Z,99.99
2016-10-14T01:40:31.015Z,99.99
2016-10-14T01:41:31.024Z,99.99
2016-10-14T01:42:30.998Z,99.99
2016-10-14T01:43:31.039Z,99.99
2016-10-14T01:44:31.155Z,99.99
2016-10-14T01:45:31.036Z,99.99
2016-10-14T01:46:30.955Z,99.99
2016-10-14T01:47:30.964Z,99.99
2016-10-14T01:48:31.058Z,99.99
2016-10-14T01:49:31.043Z,99.99
2016-10-14T01:50:31.043Z,99.99
2016-10-14T01:51:31.049Z,99.99
2016-10-14T01:52:31.059Z,99.99
2016-10-14T01:53:31.057Z,99.99
2016-10-14T01:54:31.059Z,99.99
2016-10-14T01:55:31.059Z,99.99
2016-10-14T01:56:31.063Z,99.99
2016-10-14T01:57:30.991Z,99.99
2016-10-14T01:58:31.068Z,99.99
2016-10-14T01:59:31.065Z,99.99
2016-10-14T02:00:31.273Z,99.99
2016-10-14T02:01:31.087Z,99.99
2016-10-14T02:02:31.046Z,99.99
2016-10-14T02:03:31.084Z,99.99
2016-10-14T02:04:31.084Z,99.99
2016-10-14T02:05:31.067Z,99.99
2016-10-14T02:06:31.024Z,99.99
2016-10-14T02:07:31.091Z,99.99
2016-10-14T02:08:31.095Z,99.99
2016-10-14T02:09:31.103Z,99.99
2016-10-14T02:10:31.033Z,99.99
2016-10-14T02:11:31.108Z,99.99
2016-10-14T02:12:31.072Z,99.99
2016-10-14T02:13:31.062Z,99.99
2016-10-14T02:14:31.118Z,99.99
2016-10-14T02:15:31.080Z,99.99
2016-10-14T02:16:31.199Z,99.99
2016-10-14T02:17:31.129Z,99.99
2016-10-14T02:18:31.127Z,99.99
2016-10-14T02:19:31.080Z,99.99
2016-10-14T02:20:31.123Z,99.99
2016-10-14T02:21:31.138Z,99.99
2016-10-14T02:22:31.138Z,99.99
2016-10-14T02:23:31.147Z,99.99
2016-10-14T02:24:31.143Z,99.99
2016-10-14T02:25:31.164Z,99.99
2016-10-14T02:26:31.070Z,99.99
2016-10-14T02:27:31.115Z,99.99
2016-10-14T02:28:31.153Z,99.99
2016-10-14T02:29:31.080Z,99.99
2016-10-14T02:30:31.111Z,99.99
2016-10-14T02:31:31.155Z,99.99
2016-10-14T02:32:31.232Z,99.99
2016-10-14T02:33:31.168Z,99.99
2016-10-14T02:34:31.127Z,99.99
2016-10-14T02:35:31.175Z,99.99
2016-10-14T02:36:31.174Z,99.99
2016-10-14T02:37:31.131Z,99.99
2016-10-14T02:38:31.108Z,99.99
2016-10-14T02:39:31.182Z,99.99
2016-10-14T02:40:31.178Z,99.99
2016-10-14T02:41:31.186Z,99.99
2016-10-14T02:42:31.186Z,99.99
2016-10-14T02:43:31.213Z,99.99
2016-10-14T02:44:31.118Z,99.99
2016-10-14T02:45:31.203Z,99.99
2016-10-14T02:46:31.181Z,99.99
2016-10-14T02:47:31.200Z,99.99
2016-10-14T02:48:31.293Z,99.99
2016-10-14T02:49:31.139Z,99.99
2016-10-14T02:50:31.161Z,99.99
2016-10-14T02:51:31.226Z,99.99
2016-10-14T02:52:31.185Z,99.99
2016-10-14T02:53:31.215Z,99.99
2016-10-14T02:54:31.220Z,99.99
2016-10-14T02:55:31.176Z,99.99
2016-10-14T02:56:31.163Z,99.99
2016-10-14T02:57:31.232Z,99.99
2016-10-14T02:58:31.196Z,99.99
2016-10-14T02:59:31.241Z,99.99
2016-10-14T03:00:31.237Z,99.99
2016-10-14T03:01:31.244Z,99.99
2016-10-14T03:02:31.218Z,99.99
2016-10-14T03:03:31.169Z,99.99
2016-10-14T03:04:31.525Z,99.99
2016-10-14T03:05:31.184Z,99.99
2016-10-14T03:06:31.252Z,99.99
2016-10-14T03:07:31.185Z,99.99
2016-10-14T03:08:31.255Z,99.99
2016-10-14T03:09:31.226Z,99.99
2016-10-14T03:10:31.236Z,99.99
2016-10-14T03:11:31.261Z,99.99
2016-10-14T03:12:31.273Z,99.99
2016-10-14T03:13:31.273Z,99.99
2016-10-14T03:14:31.238Z,99.99
2016-10-14T03:15:31.203Z,99.99
2016-10-14T03:16:31.287Z,99.99
2016-10-14T03:17:31.219Z,99.99
2016-10-14T03:18:31.211Z,99.99
2016-10-14T03:19:31.283Z,99.99
2016-10-14T03:20:31.411Z,99.99
2016-10-14T03:21:31.224Z,99.99
2016-10-14T03:22:31.265Z,99.99
2016-10-14T03:23:31.299Z,99.99
2016-10-14T03:24:31.253Z,99.99
2016-10-14T03:25:31.306Z,99.99
2016-10-14T03:26:31.314Z,99.99
2016-10-14T03:27:31.311Z,99.99
2016-10-14T03:28:31.319Z,99.99
2016-10-14T03:29:31.320Z,99.99
2016-10-14T03:30:31.242Z,99.99
2016-10-14T03:31:31.328Z,99.99
2016-10-14T03:32:31.325Z,99.99
2016-10-14T03:33:31.327Z,99.99
2016-10-14T03:34:31.338Z,99.99
2016-10-14T03:35:31.334Z,99.99
2016-10-14T03:36:31.454Z,99.99
2016-10-14T03:37:31.305Z,99.99
2016-10-14T03:38:31.267Z,99.99
2016-10-14T03:39:31.338Z,99.99
2016-10-14T03:40:31.268Z,99.99
2016-10-14T03:41:31.277Z,99.99
2016-10-14T03:42:31.280Z,99.99
2016-10-14T03:43:31.351Z,99.99
2016-10-14T03:44:31.364Z,99.99
2016-10-14T03:45:31.357Z,99.99
2016-10-14T03:46:31.297Z,99.99
2016-10-14T03:47:31.322Z,99.99
2016-10-14T03:48:31.301Z,99.99
2016-10-14T03:49:31.369Z,99.99
2016-10-14T03:50:31.304Z,99.99
2016-10-14T03:51:31.302Z,99.99
2016-10-14T03:52:31.498Z,99.99
2016-10-14T03:53:31.310Z,99.99
2016-10-14T03:54:31.381Z,99.99
2016-10-14T03:55:31.388Z,99.99
2016-10-14T03:56:31.395Z,99.99
2016-10-14T03:57:31.345Z,99.99
2016-10-14T03:58:31.325Z,99.99
2016-10-14T03:59:31.327Z,99.99
2016-10-14T04:00:31.397Z,99.99
2016-10-14T04:01:31.333Z,99.99
2016-10-14T04:02:31.338Z,99.99
2016-10-14T04:03:31.406Z,99.99
2016-10-14T04:04:31.386Z,99.99
2016-10-14T04:05:31.339Z,99.99
2016-10-14T04:06:31.410Z,99.99
2016-10-14T04:07:31.340Z,99.99
2016-10-14T04:08:31.468Z,99.99
2016-10-14T04:09:31.430Z,99.99
2016-10-14T04:10:31.430Z,99.99
2016-10-14T04:11:31.430Z,99.99
2016-10-14T04:12:31.439Z,99.99
2016-10-14T04:13:31.391Z,99.99
2016-10-14T04:14:31.384Z,99.99
2016-10-14T04:15:31.405Z,99.99
2016-10-14T04:16:31.413Z,99.99
2016-10-14T04:17:31.413Z,99.99
2016-10-14T04:18:31.444Z,99.99
2016-10-14T04:19:31.453Z,99.99
2016-10-14T04:20:31.453Z,99.99
2016-10-14T04:21:31.453Z,99.99
2016-10-14T04:22:31.458Z,99.99
2016-10-14T04:23:31.388Z,99.99
2016-10-14T04:24:31.669Z,99.99
2016-10-14T04:25:31.473Z,99.99
2016-10-14T04:26:31.403Z,99.99
2016-10-14T04:27:31.429Z,99.99
2016-10-14T04:28:31.481Z,99.99
2016-10-14T04:29:31.435Z,99.99
2016-10-14T04:30:31.484Z,99.99
2016-10-14T04:31:31.483Z,99.99
2016-10-14T04:32:31.415Z,99.99
2016-10-14T04:33:31.487Z,99.99
2016-10-14T04:34:31.412Z,99.99
2016-10-14T04:35:31.424Z,99.99
2016-10-14T04:36:31.493Z,99.99
2016-10-14T04:37:31.508Z,99.99
2016-10-14T04:38:31.505Z,99.99
2016-10-14T04:39:31.477Z,99.99
2016-10-14T04:40:31.622Z,99.99
2016-10-14T04:41:31.448Z,99.99
2016-10-14T04:42:31.469Z,99.99
2016-10-14T04:43:31.517Z,99.99
2016-10-14T04:44:31.527Z,99.99
2016-10-14T04:45:31.450Z,99.99
2016-10-14T04:46:31.444Z,99.99
2016-10-14T04:47:31.484Z,99.99
2016-10-14T04:48:31.543Z,99.99
2016-10-14T04:49:31.534Z,99.99
2016-10-14T04:50:31.540Z,99.99
2016-10-14T04:51:31.534Z,99.99
2016-10-14T04:52:31.547Z,99.99
2016-10-14T04:53:31.542Z,99.99
2016-10-14T04:54:31.510Z,99.99
2016-10-14T04:55:31.556Z,99.99
2016-10-14T04:56:31.688Z,99.99
2016-10-14T04:57:31.558Z,99.99
2016-10-14T04:58:31.565Z,99.99
2016-10-14T04:59:31.555Z,99.99
2016-10-14T05:00:31.525Z,99.99
2016-10-14T05:01:31.496Z,99.99
2016-10-14T05:02:31.492Z,99.99
2016-10-14T05:03:31.502Z,99.99
2016-10-14T05:04:31.572Z,99.99
2016-10-14T05:05:31.500Z,99.99
2016-10-14T05:06:31.532Z,99.99
2016-10-14T05:07:31.534Z,99.99
2016-10-14T05:08:31.591Z,99.99
2016-10-14T05:09:31.515Z,99.99
2016-10-14T05:10:31.590Z,99.99
2016-10-14T05:11:31.595Z,99.99
2016-10-14T05:12:31.823Z,99.99
2016-10-14T05:13:31.527Z,99.99
2016-10-14T05:14:31.596Z,99.99
2016-10-14T05:15:31.524Z,99.99
2016-10-14T05:16:31.534Z,99.99
2016-10-14T05:17:31.543Z,99.99
2016-10-14T05:18:31.541Z,99.99
2016-10-14T05:19:31.589Z,99.99
2016-10-14T05:20:31.556Z,99.99
2016-10-14T05:21:31.578Z,99.99
2016-10-14T05:22:31.559Z,99.99
2016-10-14T05:23:31.629Z,99.99
2016-10-14T05:24:31.638Z,99.99
2016-10-14T05:25:31.558Z,99.99
2016-10-14T05:26:31.563Z,99.99
2016-10-14T05:27:31.603Z,99.99
2016-10-14T05:28:31.837Z,99.99
2016-10-14T05:29:31.573Z,99.99
2016-10-14T05:30:31.650Z,99.99
2016-10-14T05:31:31.647Z,99.99
2016-10-14T05:32:31.585Z,99.99
2016-10-14T05:33:31.666Z,99.99
2016-10-14T05:34:31.667Z,99.99
2016-10-14T05:35:31.664Z,99.99
2016-10-14T05:36:31.844Z,99.99
2016-10-14T05:37:31.600Z,99.99
2016-10-14T05:38:31.674Z,99.99
2016-10-14T05:39:31.605Z,99.99
2016-10-14T05:40:31.599Z,99.99
2016-10-14T05:41:31.601Z,99.99
2016-10-14T05:42:31.653Z,99.99
2016-10-14T05:43:31.604Z,99.99
2016-10-14T05:44:31.760Z,99.99
2016-10-14T05:45:31.680Z,99.99
2016-10-14T05:46:31.659Z,99.99
2016-10-14T05:47:31.694Z,99.99
2016-10-14T05:48:31.697Z,99.99
2016-10-14T05:49:31.696Z,99.99
2016-10-14T05:50:31.634Z,99.99
2016-10-14T05:51:31.627Z,99.99
2016-10-14T05:52:31.719Z,99.99
2016-10-14T05:53:31.719Z,99.99
2016-10-14T05:54:31.652Z,99.99
2016-10-14T05:55:31.647Z,99.99
2016-10-14T05:56:31.654Z,99.99
2016-10-14T05:57:31.649Z,99.99
2016-10-14T05:58:31.681Z,99.99
2016-10-14T05:59:31.728Z,99.99
2016-10-14T06:00:31.888Z,99.99
2016-10-14T06:01:31.705Z,99.99
2016-10-14T06:02:31.662Z,99.99
2016-10-14T06:03:31.697Z,99.99
2016-10-14T06:04:31.677Z,99.99
2016-10-14T06:05:31.669Z,99.99
2016-10-14T06:06:31.674Z,99.99
2016-10-14T06:07:31.742Z,99.99
2016-10-14T06:08:31.751Z,99.99
2016-10-14T06:09:31.677Z,99.99
2016-10-14T06:10:31.710Z,99.99
2016-10-14T06:11:31.729Z,99.99
2016-10-14T06:12:31.689Z,99.99
2016-10-14T06:13:31.736Z,99.99
2016-10-14T06:14:31.693Z,99.99
2016-10-14T06:15:31.781Z,99.99
2016-10-14T06:16:31.913Z,99.99
2016-10-14T06:17:31.784Z,99.99
2016-10-14T06:18:31.744Z,99.99
2016-10-14T06:19:31.778Z,99.99
2016-10-14T06:20:31.750Z,99.99
2016-10-14T06:21:31.720Z,99.99
2016-10-14T06:22:31.837Z,99.99
2016-10-14T06:23:31.803Z,99.99
2016-10-14T06:24:31.771Z,99.99
2016-10-14T06:25:31.795Z,99.99
2016-10-14T06:26:31.817Z,99.99
2016-10-14T06:27:31.737Z,99.99
2016-10-14T06:28:31.808Z,99.99
2016-10-14T06:29:31.811Z,99.99
2016-10-14T06:30:31.738Z,99.99
2016-10-14T06:31:31.817Z,99.99
2016-10-14T06:32:31.907Z,99.99
2016-10-14T06:33:31.872Z,99.99
2016-10-14T06:34:31.839Z,99.99
2016-10-14T06:35:31.836Z,99.99
2016-10-14T06:36:31.755Z,99.99
2016-10-14T06:37:31.838Z,99.99
2016-10-14T06:38:31.804Z,99.99
2016-10-14T06:39:31.800Z,99.99
2016-10-14T06:40:31.835Z,99.99
2016-10-14T06:41:31.843Z,99.99
2016-10-14T06:42:31.814Z,99.99
2016-10-14T06:43:31.852Z,99.99
2016-10-14T06:44:31.856Z,99.99
2016-10-14T06:45:31.853Z,99.99
2016-10-14T06:46:31.824Z,99.99
2016-10-14T06:47:31.812Z,99.99
2016-10-14T06:48:31.982Z,99.99
2016-10-14T06:49:31.801Z,99.99
2016-10-14T06:50:31.937Z,99.99
2016-10-14T06:51:31.887Z,99.99
2016-10-14T06:52:31.819Z,99.99
2016-10-14T06:53:31.803Z,99.99
2016-10-14T06:54:31.879Z,99.99
2016-10-14T06:55:31.999Z,99.99
2016-10-14T06:56:31.844Z,99.99
2016-10-14T06:57:31.817Z,99.99
2016-10-14T06:58:31.830Z,99.99
2016-10-14T06:59:31.826Z,99.99
2016-10-14T07:00:31.868Z,99.99
2016-10-14T07:01:31.901Z,99.99
2016-10-14T07:02:31.834Z,99.99
2016-10-14T07:03:31.830Z,99.99
2016-10-14T07:04:32.205Z,99.99
2016-10-14T07:05:31.855Z,99.99
2016-10-14T07:06:31.920Z,99.99
2016-10-14T07:07:31.915Z,99.99
2016-10-14T07:08:31.846Z,99.99
2016-10-14T07:09:31.887Z,99.99
2016-10-14T07:10:31.926Z,99.99
2016-10-14T07:11:31.932Z,99.99
2016-10-14T07:12:31.998Z,99.99
2016-10-14T07:13:33.775Z,99.99
2016-10-14T07:14:31.931Z,99.99
2016-10-14T07:15:31.907Z,99.99
2016-10-14T07:16:31.973Z,99.99
2016-10-14T07:17:31.964Z,99.99
2016-10-14T07:18:31.992Z,99.99
2016-10-14T07:19:31.954Z,99.99
2016-10-14T07:20:32.353Z,99.99
2016-10-14T07:21:31.968Z,99.99
2016-10-14T07:22:31.933Z,99.99
2016-10-14T07:23:31.983Z,99.99
2016-10-14T07:24:31.967Z,99.99
2016-10-14T07:25:32.105Z,99.99
2016-10-14T07:26:32.094Z,99.99
2016-10-14T07:27:31.985Z,99.99
2016-10-14T07:28:32.024Z,99.99
2016-10-14T07:29:31.990Z,99.99
2016-10-14T07:30:31.990Z,99.99
2016-10-14T07:31:31.942Z,99.99
2016-10-14T07:32:32.020Z,99.99
2016-10-14T07:33:31.918Z,99.99
2016-10-14T07:34:31.994Z,99.99
2016-10-14T07:35:32.014Z,99.99
2016-10-14T07:36:32.208Z,99.99
2016-10-14T07:37:31.954Z,99.99
2016-10-14T07:38:31.933Z,99.99
2016-10-14T07:39:31.953Z,99.99
2016-10-14T07:40:31.978Z,99.99
2016-10-14T07:41:32.011Z,99.99
2016-10-14T07:42:32.018Z,99.99
2016-10-14T07:43:32.020Z,99.99
2016-10-14T07:44:31.990Z,99.99
2016-10-14T07:45:32.042Z,99.99
2016-10-14T07:46:32.003Z,99.99
2016-10-14T07:47:32.020Z,99.99
2016-10-14T07:48:31.960Z,99.99
2016-10-14T07:49:32.045Z,99.99
2016-10-14T07:50:32.047Z,99.99
2016-10-14T07:51:32.048Z,99.99
2016-10-14T07:52:32.300Z,99.99
2016-10-14T07:53:32.052Z,99.99
2016-10-14T07:54:32.036Z,99.99
2016-10-14T07:55:32.049Z,99.99
2016-10-14T07:56:31.978Z,99.99
2016-10-14T07:57:32.089Z,99.99
2016-10-14T07:58:32.079Z,99.99
2016-10-14T07:59:32.087Z,99.99
2016-10-14T08:00:31.997Z,99.99
2016-10-14T08:01:31.999Z,99.99
2016-10-14T08:02:32.076Z,99.99
2016-10-14T08:03:32.031Z,99.99
2016-10-14T08:04:32.134Z,99.99
2016-10-14T08:05:32.086Z,99.99
2016-10-14T08:06:32.014Z,99.99
2016-10-14T08:07:32.049Z,99.99
2016-10-14T08:08:32.114Z,99.99
2016-10-14T08:09:32.062Z,99.99
2016-10-14T08:10:32.881Z,99.99
2016-10-14T08:11:32.098Z,99.99
2016-10-14T08:12:32.137Z,99.99
2016-10-14T08:13:32.098Z,99.99
2016-10-14T08:14:32.125Z,99.99
2016-10-14T08:15:32.151Z,99.99
2016-10-14T08:16:32.148Z,99.99
2016-10-14T08:17:32.100Z,99.99
2016-10-14T08:18:32.144Z,99.99
2016-10-14T08:19:32.086Z,99.99
2016-10-14T08:20:32.123Z,99.99
2016-10-14T08:21:32.091Z,99.99
2016-10-14T08:22:32.098Z,99.99
2016-10-14T08:23:32.808Z,99.99
2016-10-14T08:24:33.215Z,99.99
2016-10-14T08:25:32.073Z,99.37
2016-10-14T08:26:32.112Z,99.94
2016-10-14T08:27:32.108Z,99.27
2016-10-14T08:28:32.143Z,99.75
2016-10-14T08:29:33.214Z,99.65
2016-10-14T08:30:32.125Z,99.18
2016-10-14T08:31:32.084Z,99.99
2016-10-14T08:32:32.123Z,99.99
2016-10-14T08:33:32.171Z,99.65
2016-10-14T08:34:32.167Z,99.99
2016-10-14T08:35:32.230Z,99.99
2016-10-14T08:36:32.346Z,99.99
2016-10-14T08:37:32.104Z,98.99
2016-10-14T08:38:32.109Z,98.46
2016-10-14T08:39:32.226Z,99.04
2016-10-14T08:40:32.179Z,99.37
2016-10-14T08:41:32.185Z,99.37
2016-10-14T08:42:32.247Z,99.18
2016-10-14T08:43:32.219Z,99.37
2016-10-14T08:44:32.187Z,99.98
2016-10-14T08:45:32.195Z,99.84
2016-10-14T08:46:32.175Z,99.65
2016-10-14T08:47:32.193Z,99.75
2016-10-14T08:48:33.558Z,99.55
2016-10-14T08:49:32.208Z,98.99
2016-10-14T08:50:33.003Z,98.99
2016-10-14T08:51:32.297Z,98.6
2016-10-14T08:52:32.252Z,98.32
2016-10-14T08:53:32.194Z,98.41
2016-10-14T08:54:32.237Z,97.89
2016-10-14T08:55:32.247Z,97.94
2016-10-14T08:56:32.166Z,97.8
2016-10-14T08:57:32.243Z,98.22
2016-10-14T08:58:32.192Z,97.94
2016-10-14T08:59:32.239Z,97.41
2016-10-14T09:00:32.191Z,98.08
2016-10-14T09:01:32.226Z,97.56
2016-10-14T09:02:32.168Z,97.84
2016-10-14T09:03:32.240Z,97.75
2016-10-14T09:04:32.189Z,98.32
2016-10-14T09:05:33.910Z,97.7
2016-10-14T09:06:32.253Z,96.84
2016-10-14T09:07:32.180Z,96.65
2016-10-14T09:08:33.166Z,95.94
2016-10-14T09:09:32.239Z,95.84
2016-10-14T09:10:32.684Z,95.27
2016-10-14T09:11:32.293Z,95.17
2016-10-14T09:12:32.305Z,93.93
2016-10-14T09:13:32.243Z,93.12
2016-10-14T09:14:32.220Z,92.46
2016-10-14T09:15:32.378Z,92.26
2016-10-14T09:16:32.258Z,91.6
2016-10-14T09:17:32.861Z,90.69
2016-10-14T09:18:32.765Z,90.59
2016-10-14T09:19:32.910Z,89.35
2016-10-14T09:20:32.784Z,88.44
2016-10-14T09:21:32.262Z,87.01
2016-10-14T09:22:32.300Z,86.19
2016-10-14T09:23:32.271Z,86.19
2016-10-14T09:24:32.305Z,86.15
2016-10-14T09:25:32.291Z,86.67
2016-10-14T09:26:32.236Z,86.57
2016-10-14T09:27:32.319Z,85.28
2016-10-14T09:28:32.314Z,85.09
2016-10-14T09:29:32.255Z,85.05
2016-10-14T09:30:32.374Z,86.24
2016-10-14T09:31:32.254Z,87.48
2016-10-14T09:32:32.322Z,86.82
2016-10-14T09:33:32.316Z,85.52
2016-10-14T09:34:32.304Z,84.95
2016-10-14T09:35:32.363Z,84.42
2016-10-14T09:36:32.401Z,83.56
2016-10-14T09:37:32.282Z,84.28
2016-10-14T09:38:32.348Z,85.28
2016-10-14T09:39:32.346Z,85.58
2016-10-14T09:40:32.396Z,87.25
2016-10-14T09:41:32.358Z,86.15
2016-10-14T09:42:32.366Z,86.24
2016-10-14T09:43:33.044Z,84.66
2016-10-14T09:44:32.596Z,83.27
2016-10-14T09:45:32.304Z,82.51
2016-10-14T09:46:32.965Z,82.26
2016-10-14T09:47:32.340Z,83.46
2016-10-14T09:48:32.402Z,84.81
2016-10-14T09:49:32.311Z,84.76
2016-10-14T09:50:32.386Z,85.05
2016-10-14T09:51:32.452Z,85.71
2016-10-14T09:52:32.355Z,87.35
2016-10-14T09:53:32.332Z,85.67
2016-10-14T09:54:32.449Z,86.23
2016-10-14T09:55:32.426Z,87.2
2016-10-14T09:56:32.365Z,87.25
2016-10-14T09:57:32.436Z,85.62
2016-10-14T09:58:32.397Z,85.66
2016-10-14T09:59:32.409Z,84.76
2016-10-14T10:00:32.447Z,84.23
2016-10-14T10:01:32.365Z,83.37
2016-10-14T10:02:32.428Z,83.27
2016-10-14T10:03:32.428Z,82.31
2016-10-14T10:04:32.349Z,82.51
2016-10-14T10:05:32.426Z,82.74
2016-10-14T10:06:32.418Z,81.21
2016-10-14T10:07:32.475Z,81.34
2016-10-14T10:08:32.486Z,81.02
2016-10-14T10:09:32.401Z,81.3
2016-10-14T10:10:32.471Z,81.21
2016-10-14T10:11:32.451Z,80.29
2016-10-14T10:12:32.478Z,79.81
2016-10-14T10:13:32.448Z,80.48
2016-10-14T10:14:32.404Z,80.19
2016-10-14T10:15:32.460Z,80.04
2016-10-14T10:16:32.502Z,80.29
2016-10-14T10:17:32.391Z,81.49
2016-10-14T10:18:32.514Z,80.82
2016-10-14T10:19:32.386Z,80.96
2016-10-14T10:20:32.486Z,81.3
2016-10-14T10:21:32.469Z,79.96
2016-10-14T10:22:32.481Z,79.37
2016-10-14T10:23:32.398Z,82.64
2016-10-14T10:24:32.486Z,84.28
2016-10-14T10:25:32.454Z,82.03
2016-10-14T10:26:32.542Z,80.73
2016-10-14T10:27:32.455Z,79.14
2016-10-14T10:28:32.491Z,77.75
2016-10-14T10:29:32.450Z,77.46
2016-10-14T10:30:32.455Z,79.87
2016-10-14T10:31:32.506Z,79.24
2016-10-14T10:32:32.534Z,78.86
2016-10-14T10:33:32.433Z,77.75
2016-10-14T10:34:32.499Z,76.44
2016-10-14T10:35:32.583Z,77.75
2016-10-14T10:36:32.452Z,77.65
2016-10-14T10:37:32.564Z,78.07
2016-10-14T10:38:32.523Z,78.42
2016-10-14T10:39:32.529Z,77.75
2016-10-14T10:40:32.454Z,76.73
2016-10-14T10:41:32.532Z,75.81
2016-10-14T10:42:32.775Z,78.22
2016-10-14T10:43:32.552Z,78.03
2016-10-14T10:44:32.473Z,78.28
2016-10-14T10:45:32.543Z,79.72
2016-10-14T10:46:32.500Z,80
2016-10-14T10:47:32.556Z,77.84
2016-10-14T10:48:32.604Z,76
2016-10-14T10:49:32.507Z,74.69
2016-10-14T10:50:32.486Z,73.74
2016-10-14T10:51:32.520Z,74.66
2016-10-14T10:52:32.561Z,74.76
2016-10-14T10:53:32.492Z,73.55
2016-10-14T10:54:32.499Z,72.53
2016-10-14T10:55:32.608Z,72.53
2016-10-14T10:56:32.594Z,72.81
2016-10-14T10:57:32.630Z,74.22
2016-10-14T10:58:32.579Z,76.06
2016-10-14T10:59:32.580Z,75.29
2016-10-14T11:00:32.601Z,75.14
2016-10-14T11:01:32.595Z,75.43
2016-10-14T11:02:32.516Z,75.77
2016-10-14T11:03:32.535Z,75.04
2016-10-14T11:04:32.603Z,76.15
2016-10-14T11:05:32.620Z,75.1
2016-10-14T11:06:32.558Z,75.37
2016-10-14T11:07:32.627Z,74.85
2016-10-14T11:08:32.606Z,74.47
2016-10-14T11:09:32.660Z,74.47
2016-10-14T11:10:32.615Z,78.64
2016-10-14T11:11:32.533Z,81.49
2016-10-14T11:12:32.759Z,83.04
2016-10-14T11:13:32.958Z,83.51
2016-10-14T11:14:32.906Z,83.04
2016-10-14T11:15:32.771Z,82.12
2016-10-14T11:16:32.892Z,79.49
2016-10-14T11:17:33.284Z,78.03
2016-10-14T11:18:32.645Z,77.55
2016-10-14T11:19:32.710Z,77.31
2016-10-14T11:20:32.646Z,76.35
2016-10-14T11:21:32.653Z,76.54
2016-10-14T11:22:32.609Z,75.87
2016-10-14T11:23:32.627Z,76.35
2016-10-14T11:24:32.659Z,77.26
2016-10-14T11:25:32.772Z,76.06
2016-10-14T11:26:32.602Z,75.9
2016-10-14T11:27:32.691Z,75.27
2016-10-14T11:28:32.599Z,76.29
2016-10-14T11:29:32.604Z,75.71
2016-10-14T11:30:32.614Z,74.95
2016-10-14T11:31:32.665Z,75.52
2016-10-14T11:32:32.608Z,76.77
2016-10-14T11:33:32.689Z,80.92
2016-10-14T11:34:32.677Z,81.36
2016-10-14T11:35:32.770Z,80.44
2016-10-14T11:36:32.617Z,81.97
2016-10-14T11:37:32.701Z,81.93
2016-10-14T11:38:32.663Z,81.11
2016-10-14T11:39:32.702Z,79.81
2016-10-14T11:40:32.704Z,77.94
2016-10-14T11:41:32.632Z,77.4
2016-10-14T11:42:32.714Z,77.21
2016-10-14T11:43:32.633Z,77.65
2016-10-14T11:44:32.638Z,77.5
2016-10-14T11:45:32.637Z,78.07
2016-10-14T11:46:32.645Z,78.55
2016-10-14T11:47:32.663Z,78.22
2016-10-14T11:48:32.688Z,78.27
2016-10-14T11:49:32.723Z,78.7
2016-10-14T11:50:32.810Z,78.99
2016-10-14T11:51:32.857Z,79.37
2016-10-14T11:52:32.739Z,79.47
2016-10-14T11:53:32.799Z,79.66
2016-10-14T11:54:32.753Z,80.1
2016-10-14T11:55:32.828Z,80
2016-10-14T11:56:32.739Z,80.19
2016-10-14T11:57:33.429Z,79.91
2016-10-14T11:58:32.771Z,79.43
2016-10-14T11:59:32.767Z,80.1
2016-10-14T12:00:32.727Z,80.16
2016-10-14T12:01:32.692Z,81.02
2016-10-14T12:02:32.789Z,81.02
2016-10-14T12:03:32.818Z,80.82
2016-10-14T12:04:32.725Z,81.02
2016-10-14T12:05:32.770Z,81.3
2016-10-14T12:06:32.769Z,80.82
2016-10-14T12:07:32.878Z,80.96
2016-10-14T12:08:32.787Z,81.25
2016-10-14T12:09:32.728Z,81.21
2016-10-14T12:10:32.797Z,81.4
2016-10-14T12:11:32.788Z,81.02
2016-10-14T12:12:32.771Z,80.87
2016-10-14T12:13:32.735Z,81.25
2016-10-14T12:14:32.730Z,81.05
2016-10-14T12:15:32.791Z,81.63
2016-10-14T12:16:32.821Z,81.15
2016-10-14T12:17:32.758Z,81.54
2016-10-14T12:18:32.819Z,81.44
2016-10-14T12:19:32.837Z,81.49
2016-10-14T12:20:32.774Z,81.97
2016-10-14T12:21:32.831Z,82.26
2016-10-14T12:22:32.825Z,81.78
2016-10-14T12:23:32.896Z,81.68
2016-10-14T12:24:32.746Z,81.78
2016-10-14T12:25:32.836Z,82.07
2016-10-14T12:26:32.878Z,82.35
2016-10-14T12:27:32.815Z,82.26
2016-10-14T12:28:32.840Z,82.26
2016-10-14T12:29:32.872Z,82.54
2016-10-14T12:30:32.845Z,83.4
2016-10-14T12:31:32.860Z,84.03
2016-10-14T12:32:32.788Z,83.46
2016-10-14T12:33:32.884Z,82.6
2016-10-14T12:34:32.917Z,82.54
2016-10-14T12:35:32.846Z,82.6
2016-10-14T12:36:32.866Z,83.17
2016-10-14T12:37:32.847Z,84.03
2016-10-14T12:38:32.826Z,84.03
2016-10-14T12:39:33.068Z,84.37
2016-10-14T12:40:33.105Z,84.85
2016-10-14T12:41:32.883Z,84.95
2016-10-14T12:42:32.877Z,83.94
2016-10-14T12:43:32.857Z,84.13
2016-10-14T12:44:32.894Z,83.99
2016-10-14T12:45:32.911Z,84.13
2016-10-14T12:46:32.895Z,84.03
2016-10-14T12:47:32.900Z,84.42
2016-10-14T12:48:32.889Z,84.32
2016-10-14T12:49:32.821Z,84.32
2016-10-14T12:50:32.923Z,83.75
2016-10-14T12:51:32.904Z,83.94
2016-10-14T12:52:32.989Z,83.94
2016-10-14T12:53:32.871Z,84.03